TimeCDT,TemperatureF,Dew PointF,Humidity,Sea Level PressureIn,VisibilityMPH,Wind Direction,Wind SpeedMPH,Gust SpeedMPH,PrecipitationIn,Events,Conditions,WindDirDegrees,DateUTC
12:15 AM,71.6,69.8,94,29.89,10.0,North,5.8,-,N/A,,Clear,350,2013-08-31 05:15:00
12:35 AM,69.8,68.0,94,29.88,10.0,Calm,Calm,-,N/A,,Clear,0,2013-08-31 05:35:00
12:55 AM,68.0,68.0,100,29.88,10.0,NNW,4.6,-,N/A,,Clear,330,2013-08-31 05:55:00
1:15 AM,68.0,68.0,100,29.88,10.0,NW,3.5,-,N/A,,Clear,320,2013-08-31 06:15:00
1:35 AM,68.0,68.0,100,29.88,10.0,NNW,3.5,-,N/A,,Clear,330,2013-08-31 06:35:00
1:55 AM,68.0,68.0,100,29.87,10.0,North,3.5,-,N/A,,Clear,350,2013-08-31 06:55:00
2:15 AM,68.0,68.0,100,29.86,10.0,NNW,3.5,-,N/A,,Clear,330,2013-08-31 07:15:00
2:35 AM,66.2,66.2,100,29.85,10.0,Calm,Calm,-,N/A,,Clear,0,2013-08-31 07:35:00
2:55 AM,66.2,66.2,100,29.85,10.0,NW,4.6,-,N/A,,Clear,310,2013-08-31 07:55:00
3:15 AM,66.2,66.2,100,29.85,10.0,NW,4.6,-,N/A,,Clear,310,2013-08-31 08:15:00
3:35 AM,66.2,66.2,100,29.86,9.0,WNW,5.8,-,N/A,,Clear,300,2013-08-31 08:35:00
3:55 AM,66.2,66.2,100,29.87,10.0,WNW,5.8,-,N/A,,Clear,290,2013-08-31 08:55:00
4:15 AM,66.2,66.2,100,29.87,9.0,WNW,6.9,-,N/A,,Clear,300,2013-08-31 09:15:00
4:35 AM,66.2,66.2,100,29.87,10.0,WNW,5.8,-,N/A,,Clear,290,2013-08-31 09:35:00
4:55 AM,66.2,66.2,100,29.87,10.0,WNW,4.6,-,N/A,,Clear,300,2013-08-31 09:55:00
5:15 AM,64.4,64.4,100,29.87,10.0,Calm,Calm,-,N/A,,Clear,0,2013-08-31 10:15:00
5:35 AM,64.4,64.4,100,29.87,10.0,Calm,Calm,-,N/A,,Clear,0,2013-08-31 10:35:00
5:55 AM,64.4,64.4,100,29.87,9.0,WNW,6.9,-,N/A,,Clear,300,2013-08-31 10:55:00
6:15 AM,62.6,62.6,100,29.87,7.0,NW,3.5,-,N/A,,Clear,320,2013-08-31 11:15:00
6:35 AM,64.4,64.4,100,29.87,9.0,NNW,4.6,-,N/A,,Clear,330,2013-08-31 11:35:00
6:55 AM,64.4,64.4,100,29.88,8.0,NNW,4.6,-,N/A,,Clear,340,2013-08-31 11:55:00
7:15 AM,64.4,64.4,100,29.89,7.0,NNW,3.5,-,N/A,,Clear,330,2013-08-31 12:15:00
7:35 AM,66.2,66.2,100,29.88,7.0,North,4.6,-,N/A,,Clear,360,2013-08-31 12:35:00
7:55 AM,66.2,66.2,100,29.89,7.0,Calm,Calm,-,N/A,,Clear,0,2013-08-31 12:55:00
8:15 AM,66.2,66.2,100,29.89,8.0,Calm,Calm,-,N/A,,Clear,0,2013-08-31 13:15:00
8:35 AM,68.0,66.2,94,29.90,10.0,NNW,3.5,-,N/A,,Clear,330,2013-08-31 13:35:00
8:55 AM,69.8,68.0,94,29.89,10.0,Calm,Calm,-,N/A,,Clear,0,2013-08-31 13:55:00
9:15 AM,71.6,68.0,88,29.87,10.0,West,4.6,-,N/A,,Clear,280,2013-08-31 14:15:00
9:35 AM,73.4,68.0,83,29.88,10.0,NW,5.8,-,N/A,,Clear,310,2013-08-31 14:35:00
9:55 AM,73.4,68.0,83,29.88,10.0,North,5.8,-,N/A,,Clear,360,2013-08-31 14:55:00
10:15 AM,75.2,68.0,78,29.89,10.0,NNW,5.8,-,N/A,,Clear,340,2013-08-31 15:15:00
10:35 AM,75.2,68.0,78,29.89,10.0,North,5.8,-,N/A,,Clear,350,2013-08-31 15:35:00
10:55 AM,75.2,68.0,78,29.88,10.0,North,-9999.0,-,N/A,,Clear,0,2013-08-31 15:55:00
11:15 AM,77.0,68.0,74,29.88,10.0,Calm,Calm,-,N/A,,Clear,0,2013-08-31 16:15:00
11:35 AM,78.8,68.0,69,29.88,10.0,North,5.8,-,N/A,,Clear,360,2013-08-31 16:35:00
11:55 AM,80.6,68.0,65,29.87,10.0,Calm,Calm,12.7,N/A,,Clear,0,2013-08-31 16:55:00
12:15 PM,80.6,66.2,61,29.87,10.0,West,5.8,-,N/A,,Clear,270,2013-08-31 17:15:00
12:35 PM,82.4,68.0,62,29.87,10.0,Calm,Calm,-,N/A,,Clear,0,2013-08-31 17:35:00
12:55 PM,82.4,68.0,62,29.87,10.0,Calm,Calm,-,N/A,,Clear,0,2013-08-31 17:55:00
1:15 PM,84.2,68.0,58,29.86,10.0,Calm,Calm,-,N/A,,Clear,0,2013-08-31 18:15:00
1:35 PM,84.2,68.0,58,29.86,10.0,Calm,Calm,-,N/A,,Clear,0,2013-08-31 18:35:00
1:55 PM,86.0,66.2,51,29.85,10.0,WNW,5.8,-,N/A,,Clear,300,2013-08-31 18:55:00
2:15 PM,87.8,64.4,46,29.84,10.0,Variable,5.8,-,N/A,,Clear,0,2013-08-31 19:15:00
2:35 PM,87.8,62.6,43,29.84,10.0,Calm,Calm,-,N/A,,Clear,0,2013-08-31 19:35:00
2:55 PM,87.8,64.4,46,29.83,10.0,South,4.6,-,N/A,,Clear,190,2013-08-31 19:55:00
3:15 PM,89.6,62.6,40,29.83,10.0,Variable,3.5,-,N/A,,Clear,0,2013-08-31 20:15:00
3:35 PM,89.6,60.8,38,29.83,10.0,Calm,Calm,-,N/A,,Clear,0,2013-08-31 20:35:00
3:55 PM,89.6,60.8,38,29.83,10.0,West,5.8,-,N/A,,Clear,280,2013-08-31 20:55:00
4:15 PM,89.6,59.0,36,29.82,10.0,Calm,Calm,-,N/A,,Clear,0,2013-08-31 21:15:00
4:35 PM,89.6,59.0,36,29.81,10.0,Calm,Calm,-,N/A,,Clear,0,2013-08-31 21:35:00
4:55 PM,91.4,60.8,36,29.81,10.0,Calm,Calm,-,N/A,,Clear,0,2013-08-31 21:55:00
5:15 PM,89.6,62.6,40,29.80,10.0,Calm,Calm,-,N/A,,Clear,0,2013-08-31 22:15:00
5:35 PM,89.6,60.8,38,29.80,10.0,Calm,Calm,-,N/A,,Clear,0,2013-08-31 22:35:00
5:55 PM,89.6,60.8,38,29.80,10.0,SW,4.6,-,N/A,,Clear,220,2013-08-31 22:55:00
6:15 PM,89.6,57.2,33,29.80,10.0,WSW,5.8,-,N/A,,Clear,240,2013-08-31 23:15:00
6:35 PM,87.8,62.6,43,29.80,10.0,WSW,4.6,-,N/A,,Clear,240,2013-08-31 23:35:00
6:55 PM,86.0,64.4,48,29.80,10.0,SW,5.8,-,N/A,,Clear,230,2013-08-31 23:55:00
7:15 PM,84.2,66.2,55,29.79,7.0,SW,6.9,-,N/A,,Clear,220,2013-09-01 00:15:00
7:35 PM,80.6,66.2,61,29.79,9.0,SW,5.8,-,N/A,,Clear,220,2013-09-01 00:35:00
7:55 PM,78.8,64.4,61,29.80,9.0,SSW,5.8,-,N/A,,Clear,210,2013-09-01 00:55:00
8:15 PM,75.2,64.4,69,29.81,6.0,SW,4.6,-,N/A,,Haze,220,2013-09-01 01:15:00
8:35 PM,75.2,64.4,69,29.82,10.0,SW,4.6,-,N/A,,Clear,230,2013-09-01 01:35:00
8:55 PM,73.4,64.4,73,29.82,10.0,SW,4.6,-,N/A,,Clear,220,2013-09-01 01:55:00
9:15 PM,73.4,64.4,73,29.83,10.0,North,4.6,-,N/A,,Clear,360,2013-09-01 02:15:00
9:35 PM,73.4,64.4,73,29.83,10.0,Calm,Calm,-,N/A,,Clear,0,2013-09-01 02:35:00
9:55 PM,71.6,64.4,78,29.83,10.0,Calm,Calm,-,N/A,,Clear,0,2013-09-01 02:55:00
10:15 PM,69.8,64.4,83,29.82,10.0,Calm,Calm,-,N/A,,Clear,0,2013-09-01 03:15:00
10:35 PM,71.6,64.4,78,29.83,10.0,Calm,Calm,-,N/A,,Clear,0,2013-09-01 03:35:00
10:55 PM,71.6,64.4,78,29.83,10.0,Calm,Calm,-,N/A,,Clear,0,2013-09-01 03:55:00
11:15 PM,69.8,66.2,88,29.82,10.0,Calm,Calm,-,N/A,,Clear,0,2013-09-01 04:15:00
11:35 PM,69.8,66.2,88,29.82,10.0,Calm,Calm,-,N/A,,Clear,0,2013-09-01 04:35:00
11:55 PM,69.8,66.2,88,29.82,10.0,Calm,Calm,-,N/A,,Clear,0,2013-09-01 04:55:00